createdAt,value
2018-05-03T00:01:37.751Z,100360
2018-05-03T00:04:06.059Z,100360
2018-05-03T00:06:34.385Z,100364
2018-05-03T00:09:02.756Z,100359
2018-05-03T00:11:31.082Z,100361
2018-05-03T00:13:59.553Z,100362
2018-05-03T00:16:28.057Z,100367
2018-05-03T00:18:56.523Z,100367
2018-05-03T00:21:24.853Z,100365
2018-05-03T00:23:53.311Z,100369
2018-05-03T00:26:22.396Z,100366
2018-05-03T00:28:51.626Z,100366
2018-05-03T00:31:19.996Z,100372
2018-05-03T00:33:48.606Z,100378
2018-05-03T00:36:16.910Z,100375
2018-05-03T00:38:45.216Z,100377
2018-05-03T00:41:14.306Z,100390
2018-05-03T00:43:43.796Z,100389
2018-05-03T00:46:12.093Z,100392
2018-05-03T00:48:41.159Z,100391
2018-05-03T00:51:09.456Z,100395
2018-05-03T00:53:38.541Z,100399
2018-05-03T00:56:06.863Z,100396
2018-05-03T00:58:35.126Z,100398
2018-05-03T01:01:03.463Z,100402
2018-05-03T01:03:31.885Z,100406
2018-05-03T01:06:00.382Z,100404
2018-05-03T01:08:28.662Z,100402
2018-05-03T01:10:57.051Z,100410
2018-05-03T01:13:25.476Z,100411
2018-05-03T01:15:54.533Z,100415
2018-05-03T01:18:22.942Z,100416
2018-05-03T01:20:51.317Z,100419
2018-05-03T01:23:19.742Z,100423
2018-05-03T01:25:48.290Z,100429
2018-05-03T01:28:17.367Z,100424
2018-05-03T01:30:45.725Z,100426
2018-05-03T01:33:13.993Z,100428
2018-05-03T01:36:00.202Z,100425
2018-05-03T01:38:28.547Z,100422
2018-05-03T01:40:56.786Z,100427
2018-05-03T01:43:25.848Z,100426
2018-05-03T01:45:54.182Z,100434
2018-05-03T01:48:23.290Z,100436
2018-05-03T01:50:51.571Z,100439
2018-05-03T01:53:19.888Z,100440
2018-05-03T01:55:48.174Z,100450
2018-05-03T01:58:17.298Z,100455
2018-05-03T02:00:46.546Z,100457
2018-05-03T02:03:16.273Z,100462
2018-05-03T02:05:44.597Z,100466
2018-05-03T02:08:12.883Z,100466
2018-05-03T02:10:42.312Z,100470
2018-05-03T02:13:10.681Z,100468
2018-05-03T02:15:39.127Z,100473
2018-05-03T02:18:07.432Z,100478
2018-05-03T02:20:35.898Z,100481
2018-05-03T02:23:04.193Z,100486
2018-05-03T02:25:32.696Z,100492
2018-05-03T02:28:01.141Z,100494
2018-05-03T02:30:29.481Z,100499
2018-05-03T02:32:59.504Z,100505
2018-05-03T02:35:29.802Z,100503
2018-05-03T02:37:58.078Z,100502
2018-05-03T02:40:26.365Z,100510
2018-05-03T02:42:54.692Z,100512
2018-05-03T02:45:23.167Z,100523
2018-05-03T02:47:51.506Z,100519
2018-05-03T02:50:20.696Z,100528
2018-05-03T02:52:49.788Z,100531
2018-05-03T02:55:18.882Z,100535
2018-05-03T02:58:10.610Z,100533
2018-05-03T03:04:23.935Z,100544
2018-05-03T03:10:44.829Z,100551
2018-05-03T03:16:54.777Z,100557
2018-05-03T03:19:41.590Z,100566
2018-05-03T03:22:33.894Z,100573
2018-05-03T03:28:41.816Z,100573
2018-05-03T03:31:33.770Z,100576
2018-05-03T03:34:20.503Z,100575
2018-05-03T03:40:20.123Z,100586
2018-05-03T03:45:46.515Z,100583
2018-05-03T03:48:14.846Z,100582
2018-05-03T03:50:43.949Z,100581
2018-05-03T03:53:13.693Z,100590
2018-05-03T03:55:41.938Z,100586
2018-05-03T03:58:11.032Z,100587
2018-05-03T04:00:40.132Z,100592
2018-05-03T04:03:08.429Z,100586
2018-05-03T04:05:36.753Z,100585
2018-05-03T04:08:05.029Z,100594
2018-05-03T04:10:33.454Z,100596
2018-05-03T04:13:01.877Z,100606
2018-05-03T04:15:30.248Z,100610
2018-05-03T04:18:16.389Z,100603
2018-05-03T04:21:07.058Z,100608
2018-05-03T04:24:07.959Z,100625
2018-05-03T04:26:36.573Z,100631
2018-05-03T04:29:05.023Z,100633
2018-05-03T04:31:33.344Z,100633
2018-05-03T04:34:01.700Z,100642
2018-05-03T04:36:30.067Z,100654
2018-05-03T04:38:58.374Z,100658
2018-05-03T04:41:26.688Z,100662
2018-05-03T04:43:55.078Z,100669
2018-05-03T04:46:23.754Z,100671
2018-05-03T04:48:52.134Z,100672
2018-05-03T04:51:20.463Z,100671
2018-05-03T04:53:48.849Z,100679
2018-05-03T04:56:17.178Z,100686
2018-05-03T04:58:45.512Z,100685
2018-05-03T05:01:13.929Z,100690
2018-05-03T05:03:42.509Z,100693
2018-05-03T05:06:10.877Z,100707
2018-05-03T05:08:39.998Z,100715
2018-05-03T05:11:08.276Z,100720
2018-05-03T05:13:36.655Z,100728
2018-05-03T05:16:06.189Z,100733
2018-05-03T05:18:34.946Z,100733
2018-05-03T05:21:03.240Z,100732
2018-05-03T05:23:31.553Z,100734
2018-05-03T05:26:00.129Z,100741
2018-05-03T05:28:29.986Z,100748
2018-05-03T05:30:58.369Z,100752
2018-05-03T05:33:26.704Z,100755
2018-05-03T05:35:55.127Z,100757
2018-05-03T05:38:23.687Z,100766
2018-05-03T05:40:52.088Z,100776
2018-05-03T05:43:20.383Z,100776
2018-05-03T05:45:48.749Z,100781
2018-05-03T05:48:17.034Z,100776
2018-05-03T05:50:45.353Z,100779
2018-05-03T05:53:13.742Z,100782
2018-05-03T05:55:42.368Z,100788
2018-05-03T05:58:10.740Z,100792
2018-05-03T06:00:39.111Z,100798
2018-05-03T06:03:07.416Z,100773
2018-05-03T06:05:35.770Z,100799
2018-05-03T06:08:04.570Z,100802
2018-05-03T06:10:32.864Z,100804
2018-05-03T06:13:01.210Z,100807
2018-05-03T06:15:29.531Z,100806
2018-05-03T06:17:57.917Z,100815
2018-05-03T06:20:26.140Z,100814
2018-05-03T06:22:54.498Z,100815
2018-05-03T06:25:23.360Z,100819
2018-05-03T06:27:51.743Z,100822
2018-05-03T06:30:20.044Z,100817
2018-05-03T06:32:48.434Z,100825
2018-05-03T06:35:16.729Z,100826
2018-05-03T06:37:45.099Z,100828
2018-05-03T06:40:13.620Z,100831
2018-05-03T06:42:42.865Z,100837
2018-05-03T06:45:11.301Z,100833
2018-05-03T06:47:39.591Z,100836
2018-05-03T06:50:07.921Z,100838
2018-05-03T06:52:36.244Z,100837
2018-05-03T06:55:04.568Z,100836
2018-05-03T06:57:32.980Z,100845
2018-05-03T07:00:01.540Z,100851
2018-05-03T07:04:58.360Z,100855
2018-05-03T07:07:27.493Z,100853
2018-05-03T07:09:55.880Z,100860
2018-05-03T07:12:25.034Z,100859
2018-05-03T07:14:53.325Z,100856
2018-05-03T07:17:21.895Z,100860
2018-05-03T07:19:51.096Z,100860
2018-05-03T07:22:19.582Z,100862
2018-05-03T07:24:48.069Z,100865
2018-05-03T07:27:16.348Z,100867
2018-05-03T07:29:44.665Z,100871
2018-05-03T07:32:12.971Z,100870
2018-05-03T07:34:42.090Z,100872
2018-05-03T07:37:10.421Z,100865
2018-05-03T07:39:38.824Z,100866
2018-05-03T07:42:07.926Z,100874
2018-05-03T07:44:37.045Z,100872
2018-05-03T07:47:06.824Z,100880
2018-05-03T07:49:35.956Z,100886
2018-05-03T07:52:04.404Z,100885
2018-05-03T07:54:32.833Z,100892
2018-05-03T07:57:01.184Z,100894
2018-05-03T07:59:29.515Z,100903
2018-05-03T08:01:57.892Z,100904
2018-05-03T08:04:26.149Z,100896
2018-05-03T08:06:55.116Z,100902
2018-05-03T08:09:23.599Z,100900
2018-05-03T08:11:51.892Z,100907
2018-05-03T08:14:20.242Z,100910
2018-05-03T08:16:49.575Z,100923
2018-05-03T08:19:18.041Z,100924
2018-05-03T08:21:46.437Z,100925
2018-05-03T08:24:14.894Z,100925
2018-05-03T08:26:43.335Z,100933
2018-05-03T08:29:12.414Z,100932
2018-05-03T08:31:40.795Z,100934
2018-05-03T08:34:09.158Z,100940
2018-05-03T08:36:37.480Z,100944
2018-05-03T08:39:06.519Z,100944
2018-05-03T08:41:34.959Z,100951
2018-05-03T08:44:03.965Z,100951
2018-05-03T08:46:32.410Z,100952
2018-05-03T08:49:01.626Z,100952
2018-05-03T08:51:30.252Z,100953
2018-05-03T08:53:58.552Z,100947
2018-05-03T08:56:26.932Z,100965
2018-05-03T08:58:55.250Z,100966
2018-05-03T09:01:23.830Z,100958
2018-05-03T09:03:52.097Z,100966
2018-05-03T09:06:20.623Z,100968
2018-05-03T09:08:48.988Z,100972
2018-05-03T09:11:17.329Z,100972
2018-05-03T09:13:46.635Z,100971
2018-05-03T09:16:15.046Z,100976
2018-05-03T09:18:43.323Z,100983
2018-05-03T09:21:11.717Z,100980
2018-05-03T09:23:40.070Z,100973
2018-05-03T09:26:08.380Z,100971
2018-05-03T09:28:37.656Z,100970
2018-05-03T09:31:06.237Z,100982
2018-05-03T09:33:34.582Z,100986
2018-05-03T09:36:02.936Z,100982
2018-05-03T09:38:31.332Z,100983
2018-05-03T09:40:59.636Z,100986
2018-05-03T09:43:29.254Z,100977
2018-05-03T09:45:57.560Z,100989
2018-05-03T09:48:25.837Z,100992
2018-05-03T09:50:54.244Z,100994
2018-05-03T09:53:23.430Z,100988
2018-05-03T09:55:51.826Z,100979
2018-05-03T09:58:20.111Z,100980
2018-05-03T10:00:48.451Z,100987
2018-05-03T10:03:17.536Z,100985
2018-05-03T10:05:46.241Z,100985
2018-05-03T10:08:15.530Z,100988
2018-05-03T10:10:43.849Z,100986
2018-05-03T10:13:13.104Z,100953
2018-05-03T10:15:41.887Z,100990
2018-05-03T10:18:11.501Z,100993
2018-05-03T10:20:39.805Z,100990
2018-05-03T10:23:08.904Z,100991
2018-05-03T10:25:38.056Z,100995
2018-05-03T10:28:06.471Z,101001
2018-05-03T10:30:35.588Z,100994
2018-05-03T10:33:03.961Z,100992
2018-05-03T10:35:32.304Z,100996
2018-05-03T10:38:00.644Z,101001
2018-05-03T10:40:28.994Z,100994
2018-05-03T10:42:57.270Z,100998
2018-05-03T10:45:25.677Z,100993
2018-05-03T10:47:55.290Z,100992
2018-05-03T10:50:23.657Z,100997
2018-05-03T10:52:51.948Z,100993
2018-05-03T10:55:20.242Z,100991
2018-05-03T10:57:48.569Z,100992
2018-05-03T11:00:16.909Z,100989
2018-05-03T11:02:45.275Z,100984
2018-05-03T11:05:15.090Z,100973
2018-05-03T11:07:43.421Z,100971
2018-05-03T11:10:11.711Z,100969
2018-05-03T11:12:40.091Z,100971
2018-05-03T11:15:08.377Z,100974
2018-05-03T11:17:36.940Z,100977
2018-05-03T11:20:05.430Z,100977
2018-05-03T11:22:33.746Z,100982
2018-05-03T11:25:02.072Z,100983
2018-05-03T11:27:30.345Z,100976
2018-05-03T11:29:58.666Z,100977
2018-05-03T11:32:27.762Z,100971
2018-05-03T11:34:56.200Z,100984
2018-05-03T11:37:24.541Z,100980
2018-05-03T11:39:53.625Z,100976
2018-05-03T11:42:21.978Z,100977
2018-05-03T11:44:50.397Z,100985
2018-05-03T11:47:18.756Z,100991
2018-05-03T11:49:47.201Z,100985
2018-05-03T11:52:15.547Z,100989
2018-05-03T11:54:43.881Z,100984
2018-05-03T11:57:12.304Z,100990
2018-05-03T11:59:40.596Z,100986
2018-05-03T12:02:08.897Z,100987
2018-05-03T12:04:37.335Z,100987
2018-05-03T12:07:05.699Z,100990
2018-05-03T12:09:34.773Z,100987
2018-05-03T12:12:03.144Z,100990
2018-05-03T12:14:31.595Z,100990
2018-05-03T12:17:01.421Z,100993
2018-05-03T12:19:29.791Z,100993
2018-05-03T12:21:58.060Z,100995
2018-05-03T12:24:26.492Z,101001
2018-05-03T12:26:54.808Z,100999
2018-05-03T12:29:23.138Z,100996
2018-05-03T12:31:51.405Z,100997
2018-05-03T12:34:19.757Z,100995
2018-05-03T12:36:48.080Z,100995
2018-05-03T12:39:17.235Z,100998
2018-05-03T12:41:45.546Z,101002
2018-05-03T12:44:14.155Z,101004
2018-05-03T12:46:43.363Z,101007
2018-05-03T12:49:11.676Z,101014
2018-05-03T12:51:40.022Z,101017
2018-05-03T12:54:08.470Z,101010
2018-05-03T12:56:37.661Z,101009
2018-05-03T12:59:05.989Z,101010
2018-05-03T13:01:34.556Z,101006
2018-05-03T13:04:02.911Z,101004
2018-05-03T13:06:32.034Z,101003
2018-05-03T13:09:00.355Z,101002
2018-05-03T13:11:29.474Z,101005
2018-05-03T13:13:57.984Z,101005
2018-05-03T13:16:26.517Z,101007
2018-05-03T13:18:55.892Z,101001
2018-05-03T13:21:24.213Z,101006
2018-05-03T13:23:53.340Z,101003
2018-05-03T13:26:21.678Z,101000
2018-05-03T13:28:49.967Z,101002
2018-05-03T13:31:19.080Z,100996
2018-05-03T13:33:47.421Z,101003
2018-05-03T13:36:16.672Z,101000
2018-05-03T13:38:45.068Z,100997
2018-05-03T13:41:13.508Z,100998
2018-05-03T13:43:41.889Z,100992
2018-05-03T13:46:10.385Z,100989
2018-05-03T13:48:38.719Z,100989
2018-05-03T13:51:07.101Z,100981
2018-05-03T13:53:35.601Z,100992
2018-05-03T13:56:04.965Z,100988
2018-05-03T13:58:33.272Z,100997
2018-05-03T14:01:02.436Z,101003
2018-05-03T14:03:30.937Z,100997
2018-05-03T14:05:59.463Z,100986
2018-05-03T14:08:27.820Z,100990
2018-05-03T14:10:56.923Z,100986
2018-05-03T14:13:25.272Z,100985
2018-05-03T14:15:53.671Z,100978
2018-05-03T14:18:22.143Z,100979
2018-05-03T14:20:51.455Z,100990
2018-05-03T14:23:20.561Z,100994
2018-05-03T14:25:48.936Z,100994
2018-05-03T14:28:17.342Z,100998
2018-05-03T14:30:45.649Z,100990
2018-05-03T14:33:14.004Z,101000
2018-05-03T14:35:42.315Z,101000
2018-05-03T14:38:11.489Z,100996
2018-05-03T14:40:39.846Z,101001
2018-05-03T14:43:08.199Z,100998
2018-05-03T14:45:36.666Z,100993
2018-05-03T14:48:07.046Z,100995
2018-05-03T14:50:35.477Z,101003
2018-05-03T14:53:04.840Z,101002
2018-05-03T14:55:33.203Z,100997
2018-05-03T14:58:02.288Z,100995
2018-05-03T15:00:30.583Z,100990
2018-05-03T15:02:58.896Z,100990
2018-05-03T15:05:27.352Z,100988
2018-05-03T15:07:55.876Z,100995
2018-05-03T15:10:24.421Z,101002
2018-05-03T15:12:52.936Z,101003
2018-05-03T15:15:21.384Z,100998
2018-05-03T15:17:49.693Z,100997
2018-05-03T15:20:18.008Z,101002
2018-05-03T15:22:46.611Z,100992
2018-05-03T15:25:15.123Z,100993
2018-05-03T15:27:44.350Z,100994
2018-05-03T15:30:12.662Z,100999
2018-05-03T15:32:41.207Z,100993
2018-05-03T15:35:09.731Z,100992
2018-05-03T15:37:38.147Z,100998
2018-05-03T15:40:07.253Z,100998
2018-05-03T15:42:35.717Z,101000
2018-05-03T15:45:04.842Z,100997
2018-05-03T15:47:33.272Z,101007
2018-05-03T15:50:01.781Z,100996
2018-05-03T15:52:30.162Z,100983
2018-05-03T15:54:58.736Z,100977
2018-05-03T15:57:28.022Z,100980
2018-05-03T15:59:57.136Z,100986
2018-05-03T16:02:26.322Z,100984
2018-05-03T16:04:54.681Z,100995
2018-05-03T16:07:23.067Z,100993
2018-05-03T16:09:51.401Z,101003
2018-05-03T16:12:19.878Z,101011
2018-05-03T16:14:48.299Z,101011
2018-05-03T16:17:16.668Z,101010
2018-05-03T16:19:46.433Z,101011
2018-05-03T16:22:14.826Z,101006
2018-05-03T16:24:43.389Z,101008
2018-05-03T16:27:11.706Z,101012
2018-05-03T16:29:40.064Z,101013
2018-05-03T16:32:10.427Z,101017
2018-05-03T16:34:40.242Z,101023
2018-05-03T16:37:10.535Z,101024
2018-05-03T16:39:39.607Z,101036
2018-05-03T16:42:08.037Z,101019
2018-05-03T16:44:36.358Z,101034
2018-05-03T16:47:04.707Z,101024
2018-05-03T16:49:33.068Z,101016
2018-05-03T16:52:01.434Z,101012
2018-05-03T16:54:29.776Z,101001
2018-05-03T16:56:58.170Z,101002
2018-05-03T16:59:26.676Z,101010
2018-05-03T17:01:55.123Z,101009
2018-05-03T17:04:23.562Z,101009
2018-05-03T17:06:52.657Z,101014
2018-05-03T17:09:21.096Z,101023
2018-05-03T17:11:49.507Z,101036
2018-05-03T17:14:18.124Z,101044
2018-05-03T17:16:46.465Z,101041
2018-05-03T17:19:15.722Z,101046
2018-05-03T17:21:44.458Z,101044
2018-05-03T17:24:13.060Z,101047
2018-05-03T17:26:42.397Z,101050
2018-05-03T17:29:10.753Z,101051
2018-05-03T17:31:39.081Z,101050
2018-05-03T17:34:07.533Z,101058
2018-05-03T17:36:35.947Z,101053
2018-05-03T17:39:04.396Z,101054
2018-05-03T17:41:32.793Z,101059
2018-05-03T17:44:01.397Z,101066
2018-05-03T17:46:29.831Z,101068
2018-05-03T17:48:58.382Z,101070
2018-05-03T17:51:27.748Z,101071
2018-05-03T17:53:56.096Z,101082
2018-05-03T17:56:24.423Z,101093
2018-05-03T17:58:53.048Z,101091
2018-05-03T18:01:21.638Z,101098
2018-05-03T18:03:50.009Z,101104
2018-05-03T18:06:18.392Z,101109
2018-05-03T18:08:46.795Z,101108
2018-05-03T18:11:15.298Z,101110
2018-05-03T18:13:43.743Z,101112
2018-05-03T18:16:12.309Z,101116
2018-05-03T18:18:40.738Z,101115
2018-05-03T18:21:09.141Z,101120
2018-05-03T18:23:37.606Z,101127
2018-05-03T18:26:06.831Z,101129
2018-05-03T18:28:35.241Z,101135
2018-05-03T18:31:03.591Z,101142
2018-05-03T18:33:31.988Z,101145
2018-05-03T18:36:00.433Z,101150
2018-05-03T18:38:29.670Z,101152
2018-05-03T18:40:58.014Z,101152
2018-05-03T18:43:27.103Z,101161
2018-05-03T18:45:56.297Z,101161
2018-05-03T18:48:25.019Z,101163
2018-05-03T18:50:53.466Z,101169
2018-05-03T18:53:22.732Z,101175
2018-05-03T18:55:51.061Z,101182
2018-05-03T18:58:19.556Z,101190
2018-05-03T19:00:48.640Z,101196
2018-05-03T19:03:17.114Z,101202
2018-05-03T19:05:46.325Z,101210
2018-05-03T19:08:14.783Z,101217
2018-05-03T19:10:45.149Z,101216
2018-05-03T19:13:18.477Z,101223
2018-05-03T19:15:46.909Z,101224
2018-05-03T19:18:15.599Z,101225
2018-05-03T19:20:44.180Z,101225
2018-05-03T19:23:12.517Z,101226
2018-05-03T19:25:40.818Z,101235
2018-05-03T19:28:09.959Z,101231
2018-05-03T19:30:38.306Z,101237
2018-05-03T19:33:06.671Z,101241
2018-05-03T19:35:35.240Z,101246
2018-05-03T19:38:03.563Z,101249
2018-05-03T19:40:31.958Z,101260
2018-05-03T19:43:00.416Z,101256
2018-05-03T19:45:30.342Z,101260
2018-05-03T19:47:58.687Z,101261
2018-05-03T19:50:27.127Z,101258
2018-05-03T19:52:56.220Z,101266
2018-05-03T19:55:24.671Z,101265
2018-05-03T19:57:53.020Z,101266
2018-05-03T20:00:21.348Z,101261
2018-05-03T20:02:49.802Z,101262
2018-05-03T20:05:18.258Z,101268
2018-05-03T20:07:46.689Z,101270
2018-05-03T20:10:15.013Z,101275
2018-05-03T20:12:43.337Z,101275
2018-05-03T20:15:13.270Z,101281
2018-05-03T20:17:41.657Z,101285
2018-05-03T20:20:10.201Z,101287
2018-05-03T20:22:38.612Z,101286
2018-05-03T20:25:06.964Z,101282
2018-05-03T20:27:36.237Z,101287
2018-05-03T20:30:04.582Z,101290
2018-05-03T20:32:33.768Z,101289
2018-05-03T20:35:02.308Z,101292
2018-05-03T20:37:30.681Z,101295
2018-05-03T20:39:59.342Z,101295
2018-05-03T20:42:27.823Z,101295
2018-05-03T20:44:56.347Z,101292
2018-05-03T20:47:25.830Z,101294
2018-05-03T20:49:54.169Z,101299
2018-05-03T20:52:23.292Z,101294
2018-05-03T20:54:51.708Z,101297
2018-05-03T20:57:20.223Z,101295
2018-05-03T20:59:48.757Z,101291
2018-05-03T21:02:17.200Z,101295
2018-05-03T21:04:46.324Z,101297
2018-05-03T21:07:14.682Z,101294
2018-05-03T21:09:43.229Z,101304
2018-05-03T21:12:12.452Z,101299
2018-05-03T21:14:41.530Z,101308
2018-05-03T21:17:10.860Z,101315
2018-05-03T21:19:39.275Z,101308
2018-05-03T21:22:07.589Z,101313
2018-05-03T21:24:35.984Z,101307
2018-05-03T21:27:05.214Z,101302
2018-05-03T21:29:33.617Z,101299
2018-05-03T21:32:02.117Z,101299
2018-05-03T21:34:30.524Z,101299
2018-05-03T21:36:59.013Z,101307
2018-05-03T21:39:27.422Z,101307
2018-05-03T21:41:55.818Z,101311
2018-05-03T21:44:24.583Z,101313
2018-05-03T21:46:53.134Z,101315
2018-05-03T21:49:21.522Z,101321
2018-05-03T21:51:49.837Z,101318
2018-05-03T21:54:18.275Z,101316
2018-05-03T21:56:46.593Z,101317
2018-05-03T21:59:16.033Z,101318
2018-05-03T22:01:45.322Z,101327
2018-05-03T22:04:13.651Z,101324
2018-05-03T22:06:41.959Z,101325
2018-05-03T22:09:10.273Z,101331
2018-05-03T22:11:39.394Z,101333
2018-05-03T22:14:07.690Z,101340
2018-05-03T22:16:35.984Z,101336
2018-05-03T22:19:04.298Z,101333
2018-05-03T22:21:34.592Z,101330
2018-05-03T22:24:02.938Z,101336
2018-05-03T22:26:31.298Z,101334
2018-05-03T22:28:59.809Z,101338
2018-05-03T22:31:28.120Z,101341
2018-05-03T22:33:56.448Z,101337
2018-05-03T22:36:24.757Z,101345
2018-05-03T22:38:53.093Z,101344
2018-05-03T22:41:21.392Z,101346
2018-05-03T22:43:49.719Z,101346
2018-05-03T22:46:18.939Z,101341
2018-05-03T22:48:47.855Z,101340
2018-05-03T22:51:16.152Z,101336
2018-05-03T22:53:44.477Z,101336
2018-05-03T22:56:12.863Z,101340
2018-05-03T22:58:41.445Z,101343
2018-05-03T23:01:10.158Z,101343
2018-05-03T23:03:38.445Z,101345
2018-05-03T23:06:06.728Z,101349
2018-05-03T23:08:35.982Z,101347
2018-05-03T23:11:05.467Z,101346
2018-05-03T23:13:33.829Z,101342
2018-05-03T23:16:02.201Z,101342
2018-05-03T23:18:30.787Z,101341
2018-05-03T23:20:59.059Z,101352
2018-05-03T23:23:27.503Z,101352
2018-05-03T23:25:56.064Z,101348
2018-05-03T23:28:24.469Z,101344
2018-05-03T23:30:52.778Z,101347
2018-05-03T23:33:21.107Z,101349
2018-05-03T23:35:49.419Z,101354
2018-05-03T23:38:17.784Z,101360
2018-05-03T23:40:46.108Z,101363
2018-05-03T23:43:14.393Z,101366
2018-05-03T23:45:43.558Z,101358
2018-05-03T23:48:11.868Z,101358
2018-05-03T23:50:41.112Z,101359
2018-05-03T23:53:09.413Z,101360
2018-05-03T23:55:37.822Z,101366
2018-05-03T23:58:06.479Z,101360
